URAAT LKMT-LKMT
Flight info
| Callsign | URAAT |
|---|---|
| Flight time | N/A |
| Altitude | 6000 |
| Route | VFR |
| Aircraft | PA24/L-SDGRY/S |
Departure
| Time | 2026-04-22 17:54 |
|---|---|
| Airport | Leoš Janáček Airport Ostrava (LKMT) |
Arrival
| Time | N/A |
|---|---|
| Airport | Leoš Janáček Airport Ostrava (LKMT) |
| Time | Latitude | Longitude | Altitude | Speed | Heading |
|---|---|---|---|---|---|
| 2026-04-22 17:30 | 49.69824 | 18.12282 | 820 ft | 0 kts | 227° |
| 2026-04-22 17:46 | 49.69816 | 18.12262 | 820 ft | 0 kts | 281° |
| 2026-04-22 17:47 | 49.69837 | 18.12220 | 819 ft | 8 kts | 316° |
| 2026-04-22 17:47 | 49.69851 | 18.12157 | 819 ft | 8 kts | 227° |
| 2026-04-22 17:47 | 49.69793 | 18.12065 | 820 ft | 15 kts | 227° |
| 2026-04-22 17:47 | 49.69704 | 18.11919 | 822 ft | 20 kts | 226° |
| 2026-04-22 17:48 | 49.69646 | 18.11827 | 824 ft | 18 kts | 227° |
| 2026-04-22 17:48 | 49.69523 | 18.11630 | 826 ft | 13 kts | 226° |
| 2026-04-22 17:48 | 49.69453 | 18.11516 | 824 ft | 16 kts | 226° |
| 2026-04-22 17:48 | 49.69424 | 18.11370 | 824 ft | 16 kts | 324° |
| 2026-04-22 17:49 | 49.69490 | 18.11273 | 826 ft | 13 kts | 317° |
| 2026-04-22 17:49 | 49.69509 | 18.11246 | 826 ft | 0 kts | 316° |
| 2026-04-22 17:51 | 49.69525 | 18.11222 | 825 ft | 8 kts | 316° |
| 2026-04-22 17:51 | 49.69588 | 18.11128 | 825 ft | 15 kts | 316° |
| 2026-04-22 17:51 | 49.69657 | 18.11143 | 826 ft | 19 kts | 46° |
| 2026-04-22 17:51 | 49.69917 | 18.11541 | 881 ft | 70 kts | 40° |
| 2026-04-22 17:52 | 49.70270 | 18.12128 | 1087 ft | 78 kts | 42° |
| 2026-04-22 17:52 | 49.70721 | 18.12920 | 1116 ft | 113 kts | 47° |
| 2026-04-22 17:52 | 49.71289 | 18.13891 | 1110 ft | 131 kts | 36° |
| 2026-04-22 17:52 | 49.72164 | 18.14346 | 1076 ft | 142 kts | 359° |
| 2026-04-22 17:53 | 49.73097 | 18.13861 | 1096 ft | 143 kts | 332° |
| 2026-04-22 17:53 | 49.73976 | 18.13156 | 1093 ft | 139 kts | 334° |
| 2026-04-22 17:53 | 49.74807 | 18.12452 | 1118 ft | 130 kts | 333° |
| 2026-04-22 17:53 | 49.75569 | 18.11826 | 1264 ft | 121 kts | 333° |
| 2026-04-22 17:54 | 49.76278 | 18.11233 | 1390 ft | 112 kts | 333° |
| 2026-04-22 17:54 | 49.76958 | 18.10664 | 1514 ft | 109 kts | 333° |
| 2026-04-22 17:54 | 49.77634 | 18.10093 | 1525 ft | 113 kts | 333° |
| 2026-04-22 17:54 | 49.78349 | 18.09490 | 1531 ft | 120 kts | 333° |
| 2026-04-22 17:55 | 49.78831 | 18.09085 | 1527 ft | 119 kts | 333° |
| 2026-04-22 17:55 | 49.79811 | 18.08267 | 1518 ft | 122 kts | 333° |
| 2026-04-22 17:55 | 49.80607 | 18.07844 | 1513 ft | 120 kts | 345° |
| 2026-04-22 17:55 | 49.81408 | 18.07524 | 1512 ft | 119 kts | 345° |
| 2026-04-22 17:56 | 49.82217 | 18.07209 | 1514 ft | 122 kts | 346° |
| 2026-04-22 17:56 | 49.83038 | 18.06894 | 1515 ft | 120 kts | 346° |
| 2026-04-22 17:56 | 49.83850 | 18.06597 | 1516 ft | 121 kts | 346° |
| 2026-04-22 17:56 | 49.84677 | 18.06271 | 1516 ft | 123 kts | 345° |
| 2026-04-22 17:57 | 49.85492 | 18.05945 | 1516 ft | 120 kts | 345° |
| 2026-04-22 17:57 | 49.86303 | 18.05620 | 1515 ft | 121 kts | 345° |
| 2026-04-22 17:57 | 49.87111 | 18.05293 | 1515 ft | 120 kts | 345° |
| 2026-04-22 17:57 | 49.87922 | 18.04988 | 1515 ft | 117 kts | 346° |
| 2026-04-22 17:58 | 49.88696 | 18.04672 | 1511 ft | 117 kts | 346° |
| 2026-04-22 17:58 | 49.89487 | 18.04351 | 1516 ft | 118 kts | 346° |
| 2026-04-22 17:58 | 49.90292 | 18.04043 | 1516 ft | 119 kts | 345° |
| 2026-04-22 17:58 | 49.91094 | 18.03735 | 1515 ft | 119 kts | 346° |
| 2026-04-22 17:59 | 49.91885 | 18.03417 | 1514 ft | 116 kts | 345° |
| 2026-04-22 17:59 | 49.92673 | 18.03328 | 1498 ft | 115 kts | 14° |
| 2026-04-22 17:59 | 49.93078 | 18.04199 | 1438 ft | 103 kts | 88° |
| 2026-04-22 17:59 | 49.92948 | 18.05306 | 1119 ft | 98 kts | 91° |
| 2026-04-22 18:00 | 49.92914 | 18.05970 | 969 ft | 94 kts | 89° |
| 2026-04-22 18:00 | 49.92813 | 18.07263 | 794 ft | 76 kts | 94° |
| 2026-04-22 18:00 | 49.92739 | 18.08085 | 840 ft | 90 kts | 93° |
| 2026-04-22 18:00 | 49.92656 | 18.09051 | 1120 ft | 94 kts | 91° |
| 2026-04-22 18:01 | 49.92562 | 18.10171 | 1268 ft | 118 kts | 95° |
| 2026-04-22 18:01 | 49.92589 | 18.11530 | 1231 ft | 136 kts | 68° |
| 2026-04-22 18:01 | 49.93189 | 18.12655 | 1253 ft | 140 kts | 28° |
| 2026-04-22 18:01 | 49.94126 | 18.13071 | 1196 ft | 144 kts | 359° |
| 2026-04-22 18:02 | 49.95041 | 18.12520 | 1210 ft | 142 kts | 317° |
| 2026-04-22 18:02 | 49.95494 | 18.11210 | 1224 ft | 139 kts | 287° |
| 2026-04-22 18:02 | 49.95748 | 18.09772 | 1234 ft | 137 kts | 285° |
| 2026-04-22 18:02 | 49.95960 | 18.08325 | 1243 ft | 137 kts | 285° |
| 2026-04-22 18:03 | 49.96172 | 18.06887 | 1240 ft | 136 kts | 284° |
| 2026-04-22 18:03 | 49.96380 | 18.05447 | 1249 ft | 137 kts | 285° |
| 2026-04-22 18:03 | 49.96583 | 18.04011 | 1242 ft | 136 kts | 284° |
| 2026-04-22 18:03 | 49.96689 | 18.02564 | 1240 ft | 136 kts | 265° |
| 2026-04-22 18:04 | 49.96237 | 18.01307 | 1231 ft | 131 kts | 223° |
| 2026-04-22 18:04 | 49.95466 | 18.00766 | 1227 ft | 115 kts | 199° |
| 2026-04-22 18:04 | 49.94741 | 18.00487 | 1239 ft | 101 kts | 183° |
| 2026-04-22 18:04 | 49.94129 | 18.00810 | 1232 ft | 89 kts | 140° |
| 2026-04-22 18:05 | 49.93796 | 18.01586 | 1218 ft | 89 kts | 109° |
| 2026-04-22 18:05 | 49.93553 | 18.02465 | 1224 ft | 90 kts | 108° |
| 2026-04-22 18:05 | 49.93331 | 18.03383 | 1164 ft | 90 kts | 103° |
| 2026-04-22 18:05 | 49.93172 | 18.04306 | 1092 ft | 90 kts | 99° |
| 2026-04-22 18:06 | 49.93057 | 18.05243 | 997 ft | 85 kts | 95° |
| 2026-04-22 18:06 | 49.92966 | 18.06130 | 898 ft | 81 kts | 92° |
| 2026-04-22 18:06 | 49.92876 | 18.06978 | 799 ft | 77 kts | 97° |
| 2026-04-22 18:06 | 49.92786 | 18.07663 | 790 ft | 52 kts | 94° |
| 2026-04-22 18:07 | 49.92756 | 18.08028 | 789 ft | 65 kts | 95° |
| 2026-04-22 18:07 | 49.92632 | 18.09040 | 1034 ft | 77 kts | 95° |
| 2026-04-22 18:07 | 49.92503 | 18.09922 | 1324 ft | 89 kts | 97° |
| 2026-04-22 18:07 | 49.92505 | 18.11049 | 1324 ft | 116 kts | 69° |
| 2026-04-22 18:08 | 49.92963 | 18.12077 | 1278 ft | 121 kts | 34° |
| 2026-04-22 18:08 | 49.93697 | 18.12539 | 1448 ft | 108 kts | 13° |
| 2026-04-22 18:08 | 49.94424 | 18.12761 | 1490 ft | 110 kts | 356° |
| 2026-04-22 18:08 | 49.95118 | 18.12292 | 1501 ft | 112 kts | 316° |
| 2026-04-22 18:09 | 49.95476 | 18.11196 | 1502 ft | 119 kts | 287° |
| 2026-04-22 18:09 | 49.95614 | 18.09929 | 1511 ft | 121 kts | 277° |
| 2026-04-22 18:09 | 49.95645 | 18.08612 | 1514 ft | 122 kts | 276° |
| 2026-04-22 18:09 | 49.95679 | 18.07295 | 1516 ft | 123 kts | 276° |
| 2026-04-22 18:10 | 49.95757 | 18.05975 | 1505 ft | 122 kts | 281° |
| 2026-04-22 18:10 | 49.95858 | 18.04683 | 1502 ft | 120 kts | 282° |
| 2026-04-22 18:10 | 49.95960 | 18.03387 | 1502 ft | 121 kts | 281° |
| 2026-04-22 18:10 | 49.95890 | 18.02125 | 1510 ft | 116 kts | 250° |
| 2026-04-22 18:11 | 49.95568 | 18.01512 | 1501 ft | 110 kts | 223° |
| 2026-04-22 18:11 | 49.94846 | 18.01121 | 1361 ft | 117 kts | 185° |
| 2026-04-22 18:11 | 49.94134 | 18.01405 | 1346 ft | 101 kts | 149° |
| 2026-04-22 18:11 | 49.93613 | 18.02138 | 1246 ft | 100 kts | 124° |
| 2026-04-22 18:12 | 49.93301 | 18.03054 | 1139 ft | 94 kts | 105° |
| 2026-04-22 18:12 | 49.93151 | 18.03967 | 1084 ft | 83 kts | 96° |
| 2026-04-22 18:12 | 49.93058 | 18.04850 | 1023 ft | 81 kts | 91° |
| 2026-04-22 18:12 | 49.93000 | 18.05712 | 924 ft | 80 kts | 94° |
| 2026-04-22 18:13 | 49.92916 | 18.06567 | 825 ft | 78 kts | 95° |
| 2026-04-22 18:13 | 49.92829 | 18.07308 | 793 ft | 57 kts | 97° |
| 2026-04-22 18:13 | 49.92799 | 18.07745 | 793 ft | 19 kts | 94° |
| 2026-04-22 18:13 | 49.92819 | 18.07788 | 793 ft | 1 kts | 33° |
| 2026-04-22 18:14 | 49.92870 | 18.07830 | 794 ft | 15 kts | 11° |
| 2026-04-22 18:14 | 49.92922 | 18.07886 | 796 ft | 3 kts | 318° |
| 2026-04-22 18:14 | 49.92924 | 18.07876 | 796 ft | 0 kts | 272° |
| 2026-04-22 18:19 | 49.92924 | 18.07864 | 795 ft | 4 kts | 272° |
| 2026-04-22 18:19 | 49.92881 | 18.07828 | 794 ft | 13 kts | 187° |
| 2026-04-22 18:20 | 49.92815 | 18.07732 | 793 ft | 16 kts | 277° |
| 2026-04-22 18:20 | 49.92830 | 18.07564 | 791 ft | 16 kts | 278° |
| 2026-04-22 18:20 | 49.92846 | 18.07412 | 791 ft | 13 kts | 279° |
| 2026-04-22 18:20 | 49.92860 | 18.07287 | 792 ft | 12 kts | 280° |
| 2026-04-22 18:21 | 49.92875 | 18.07168 | 791 ft | 11 kts | 281° |
| 2026-04-22 18:21 | 49.92858 | 18.07137 | 791 ft | 0 kts | 99° |
| 2026-04-22 18:21 | 49.92831 | 18.07486 | 806 ft | 71 kts | 97° |
| 2026-04-22 18:21 | 49.92760 | 18.08349 | 1054 ft | 87 kts | 95° |
| 2026-04-22 18:22 | 49.92441 | 18.09198 | 1394 ft | 106 kts | 134° |
| 2026-04-22 18:22 | 49.91734 | 18.09683 | 1551 ft | 129 kts | 174° |
| 2026-04-22 18:22 | 49.90807 | 18.09296 | 1516 ft | 147 kts | 217° |
| 2026-04-22 18:22 | 49.90144 | 18.08066 | 1513 ft | 153 kts | 237° |
| 2026-04-22 18:23 | 49.89824 | 18.06482 | 1520 ft | 156 kts | 276° |
| 2026-04-22 18:23 | 49.90068 | 18.04867 | 1516 ft | 156 kts | 288° |
| 2026-04-22 18:23 | 49.90349 | 18.03239 | 1485 ft | 156 kts | 287° |
| 2026-04-22 18:24 | 49.90952 | 18.00037 | 1504 ft | 155 kts | 287° |
| 2026-04-22 18:24 | 49.91140 | 17.98390 | 1512 ft | 156 kts | 276° |
| 2026-04-22 18:24 | 49.91292 | 17.95038 | 1514 ft | 157 kts | 277° |
| 2026-04-22 18:25 | 49.91366 | 17.93343 | 1516 ft | 158 kts | 276° |
| 2026-04-22 18:25 | 49.91462 | 17.91644 | 1514 ft | 158 kts | 276° |
| 2026-04-22 18:25 | 49.91563 | 17.89951 | 1508 ft | 157 kts | 277° |
| 2026-04-22 18:26 | 49.91743 | 17.86586 | 1509 ft | 157 kts | 276° |
| 2026-04-22 18:26 | 49.91838 | 17.84999 | 1513 ft | 157 kts | 277° |
| 2026-04-22 18:26 | 49.91946 | 17.83323 | 1515 ft | 157 kts | 277° |
| 2026-04-22 18:26 | 49.92035 | 17.81626 | 1515 ft | 157 kts | 276° |
| 2026-04-22 18:27 | 49.92131 | 17.79940 | 1519 ft | 157 kts | 277° |
| 2026-04-22 18:27 | 49.92228 | 17.78250 | 1524 ft | 157 kts | 276° |
| 2026-04-22 18:27 | 49.92322 | 17.76567 | 1536 ft | 156 kts | 276° |
| 2026-04-22 18:27 | 49.92393 | 17.75110 | 2063 ft | 128 kts | 277° |
| 2026-04-22 18:28 | 49.92472 | 17.73601 | 1948 ft | 148 kts | 277° |
| 2026-04-22 18:28 | 49.92555 | 17.71975 | 1930 ft | 152 kts | 278° |
| 2026-04-22 18:28 | 49.92624 | 17.70314 | 1917 ft | 156 kts | 276° |
| 2026-04-22 18:28 | 49.92690 | 17.68637 | 1910 ft | 156 kts | 276° |
| 2026-04-22 18:29 | 49.92752 | 17.66948 | 1902 ft | 157 kts | 278° |
| 2026-04-22 18:29 | 49.92821 | 17.65259 | 1906 ft | 158 kts | 276° |
| 2026-04-22 18:29 | 49.92893 | 17.63573 | 1905 ft | 159 kts | 275° |
| 2026-04-22 18:29 | 49.92930 | 17.61865 | 1904 ft | 159 kts | 277° |
| 2026-04-22 18:30 | 49.92988 | 17.60218 | 2141 ft | 145 kts | 276° |
| 2026-04-22 18:30 | 49.93056 | 17.57031 | 2186 ft | 153 kts | 277° |
| 2026-04-22 18:30 | 49.93125 | 17.55394 | 2283 ft | 151 kts | 279° |
| 2026-04-22 18:31 | 49.93172 | 17.53746 | 2303 ft | 153 kts | 275° |
| 2026-04-22 18:31 | 49.93195 | 17.52116 | 2386 ft | 151 kts | 271° |
| 2026-04-22 18:31 | 49.93016 | 17.50478 | 2400 ft | 156 kts | 262° |
| 2026-04-22 18:31 | 49.92774 | 17.48810 | 2388 ft | 160 kts | 263° |
| 2026-04-22 18:32 | 49.92554 | 17.47104 | 2376 ft | 162 kts | 262° |
| 2026-04-22 18:32 | 49.92343 | 17.45383 | 2378 ft | 163 kts | 265° |
| 2026-04-22 18:32 | 49.92132 | 17.43666 | 2378 ft | 161 kts | 259° |
| 2026-04-22 18:32 | 49.91874 | 17.41970 | 2376 ft | 162 kts | 264° |
| 2026-04-22 18:33 | 49.91655 | 17.40253 | 2379 ft | 163 kts | 260° |
| 2026-04-22 18:33 | 49.91403 | 17.38528 | 2380 ft | 164 kts | 263° |
| 2026-04-22 18:33 | 49.91187 | 17.36829 | 2379 ft | 162 kts | 263° |
| 2026-04-22 18:33 | 49.90944 | 17.35098 | 2379 ft | 162 kts | 263° |
| 2026-04-22 18:34 | 49.90711 | 17.33419 | 2382 ft | 160 kts | 262° |
| 2026-04-22 18:34 | 49.90519 | 17.31799 | 2633 ft | 148 kts | 271° |
| 2026-04-22 18:34 | 49.90642 | 17.30228 | 2763 ft | 142 kts | 291° |
| 2026-04-22 18:34 | 49.90935 | 17.28733 | 2762 ft | 147 kts | 292° |
| 2026-04-22 18:35 | 49.91208 | 17.27187 | 2752 ft | 150 kts | 292° |
| 2026-04-22 18:35 | 49.91543 | 17.25634 | 2745 ft | 153 kts | 294° |
| 2026-04-22 18:35 | 49.91865 | 17.24055 | 2744 ft | 154 kts | 294° |
| 2026-04-22 18:35 | 49.92207 | 17.22487 | 2746 ft | 153 kts | 292° |
| 2026-04-22 18:36 | 49.92488 | 17.20935 | 2924 ft | 144 kts | 292° |
| 2026-04-22 18:36 | 49.92763 | 17.19450 | 3007 ft | 143 kts | 292° |
| 2026-04-22 18:36 | 49.93025 | 17.17926 | 3008 ft | 149 kts | 287° |
| 2026-04-22 18:36 | 49.93302 | 17.16358 | 3002 ft | 152 kts | 291° |
| 2026-04-22 18:37 | 49.93648 | 17.14828 | 3000 ft | 152 kts | 293° |
| 2026-04-22 18:37 | 49.93780 | 17.13204 | 2997 ft | 154 kts | 278° |
| 2026-04-22 18:37 | 49.93820 | 17.12081 | 2996 ft | 154 kts | 278° |
| 2026-04-22 18:37 | 49.93843 | 17.09859 | 2997 ft | 156 kts | 279° |
| 2026-04-22 18:38 | 49.93917 | 17.08182 | 2992 ft | 155 kts | 278° |
| 2026-04-22 18:38 | 49.93981 | 17.06504 | 2995 ft | 156 kts | 279° |
| 2026-04-22 18:38 | 49.94042 | 17.04816 | 2990 ft | 155 kts | 278° |
| 2026-04-22 18:39 | 49.94106 | 17.01435 | 2991 ft | 157 kts | 278° |
| 2026-04-22 18:39 | 49.94128 | 16.99739 | 2994 ft | 157 kts | 276° |
| 2026-04-22 18:39 | 49.94147 | 16.98038 | 2994 ft | 158 kts | 278° |
| 2026-04-22 18:39 | 49.94191 | 16.96339 | 2995 ft | 157 kts | 279° |
| 2026-04-22 18:40 | 49.94228 | 16.94643 | 2997 ft | 158 kts | 278° |
| 2026-04-22 18:40 | 49.94269 | 16.92941 | 2999 ft | 158 kts | 279° |
| 2026-04-22 18:40 | 49.94313 | 16.91246 | 2999 ft | 156 kts | 278° |
| 2026-04-22 18:40 | 49.94355 | 16.89564 | 2998 ft | 156 kts | 278° |
| 2026-04-22 18:41 | 49.94389 | 16.87873 | 3000 ft | 157 kts | 278° |
| 2026-04-22 18:41 | 49.94422 | 16.86202 | 2998 ft | 157 kts | 278° |
| 2026-04-22 18:41 | 49.94634 | 16.84549 | 3001 ft | 155 kts | 297° |
| 2026-04-22 18:41 | 49.94977 | 16.82991 | 3001 ft | 152 kts | 290° |
| 2026-04-22 18:42 | 49.95257 | 16.81404 | 2996 ft | 152 kts | 291° |
| 2026-04-22 18:42 | 49.95540 | 16.79827 | 2999 ft | 151 kts | 291° |
| 2026-04-22 18:42 | 49.95833 | 16.78243 | 3004 ft | 155 kts | 293° |
| 2026-04-22 18:42 | 49.96127 | 16.76632 | 3003 ft | 155 kts | 291° |
| 2026-04-22 18:43 | 49.96386 | 16.75017 | 2999 ft | 154 kts | 291° |
| 2026-04-22 18:43 | 49.96653 | 16.73423 | 2999 ft | 152 kts | 291° |
| 2026-04-22 18:43 | 49.96919 | 16.71841 | 2998 ft | 151 kts | 291° |
| 2026-04-22 18:43 | 49.97182 | 16.70255 | 3001 ft | 152 kts | 291° |
| 2026-04-22 18:44 | 49.97472 | 16.68680 | 3001 ft | 151 kts | 291° |
| 2026-04-22 18:44 | 49.97738 | 16.67099 | 3001 ft | 151 kts | 291° |
| 2026-04-22 18:44 | 49.98006 | 16.65520 | 2999 ft | 151 kts | 292° |
| 2026-04-22 18:44 | 49.98275 | 16.63945 | 3001 ft | 151 kts | 291° |
| 2026-04-22 18:45 | 49.98628 | 16.62409 | 3006 ft | 151 kts | 304° |
| 2026-04-22 18:45 | 49.99131 | 16.61000 | 3000 ft | 148 kts | 306° |
| 2026-04-22 18:45 | 49.99674 | 16.59643 | 3001 ft | 147 kts | 306° |
| 2026-04-22 18:45 | 50.00206 | 16.58283 | 3005 ft | 148 kts | 306° |
| 2026-04-22 18:46 | 50.00741 | 16.56941 | 3007 ft | 148 kts | 306° |
| 2026-04-22 18:46 | 50.01275 | 16.55574 | 3007 ft | 148 kts | 306° |
| 2026-04-22 18:46 | 50.01801 | 16.54203 | 3007 ft | 148 kts | 304° |
| 2026-04-22 18:46 | 50.02322 | 16.52820 | 3008 ft | 148 kts | 306° |
| 2026-04-22 18:47 | 50.02853 | 16.51454 | 3006 ft | 148 kts | 306° |
| 2026-04-22 18:47 | 50.03373 | 16.50078 | 3008 ft | 148 kts | 305° |
| 2026-04-22 18:47 | 50.03894 | 16.48700 | 3011 ft | 148 kts | 306° |
| 2026-04-22 18:47 | 50.04421 | 16.47315 | 3008 ft | 149 kts | 305° |
| 2026-04-22 18:48 | 50.04951 | 16.45921 | 3006 ft | 149 kts | 305° |
| 2026-04-22 18:48 | 50.05533 | 16.44599 | 3008 ft | 148 kts | 315° |
| 2026-04-22 18:48 | 50.06214 | 16.43403 | 3005 ft | 147 kts | 315° |
| 2026-04-22 18:48 | 50.06867 | 16.42195 | 3006 ft | 148 kts | 313° |
| 2026-04-22 18:49 | 50.07539 | 16.40992 | 3005 ft | 147 kts | 317° |
| 2026-04-22 18:49 | 50.08236 | 16.39840 | 3005 ft | 147 kts | 317° |
| 2026-04-22 18:49 | 50.08931 | 16.38674 | 2999 ft | 147 kts | 315° |
| 2026-04-22 18:49 | 50.09597 | 16.37470 | 3005 ft | 146 kts | 315° |
| 2026-04-22 18:50 | 50.10280 | 16.36300 | 3008 ft | 146 kts | 316° |
| 2026-04-22 18:50 | 50.10954 | 16.35117 | 3008 ft | 146 kts | 316° |
| 2026-04-22 18:50 | 50.11586 | 16.33890 | 2997 ft | 146 kts | 300° |
| 2026-04-22 18:50 | 50.11870 | 16.32342 | 3009 ft | 151 kts | 286° |
| 2026-04-22 18:51 | 50.11994 | 16.30706 | 3013 ft | 153 kts | 278° |
| 2026-04-22 18:51 | 50.12030 | 16.29041 | 3011 ft | 155 kts | 278° |
| 2026-04-22 18:51 | 50.12056 | 16.27360 | 3010 ft | 154 kts | 277° |
| 2026-04-22 18:51 | 50.12079 | 16.25681 | 3010 ft | 155 kts | 277° |
| 2026-04-22 18:52 | 50.12104 | 16.24005 | 3010 ft | 155 kts | 277° |
| 2026-04-22 18:52 | 50.12129 | 16.22342 | 3011 ft | 155 kts | 277° |
| 2026-04-22 18:52 | 50.12155 | 16.20667 | 3005 ft | 154 kts | 277° |
| 2026-04-22 18:52 | 50.12190 | 16.19007 | 3009 ft | 154 kts | 277° |
| 2026-04-22 18:53 | 50.12224 | 16.17341 | 3010 ft | 154 kts | 277° |
| 2026-04-22 18:53 | 50.12261 | 16.15676 | 3011 ft | 154 kts | 277° |
| 2026-04-22 18:53 | 50.12306 | 16.14004 | 3013 ft | 154 kts | 279° |
| 2026-04-22 18:53 | 50.12399 | 16.12341 | 3011 ft | 154 kts | 280° |
| 2026-04-22 18:54 | 50.12490 | 16.10680 | 3004 ft | 154 kts | 280° |
| 2026-04-22 18:54 | 50.12584 | 16.09016 | 3011 ft | 154 kts | 280° |
| 2026-04-22 18:54 | 50.12725 | 16.07368 | 3007 ft | 153 kts | 284° |
| 2026-04-22 18:54 | 50.12872 | 16.05725 | 3010 ft | 154 kts | 283° |
| 2026-04-22 18:55 | 50.13020 | 16.04078 | 3010 ft | 153 kts | 283° |
| 2026-04-22 18:55 | 50.13168 | 16.02437 | 3004 ft | 153 kts | 283° |
| 2026-04-22 18:55 | 50.13318 | 16.00796 | 3012 ft | 153 kts | 284° |
| 2026-04-22 18:55 | 50.13467 | 15.99150 | 3013 ft | 154 kts | 282° |
| 2026-04-22 18:56 | 50.13624 | 15.97493 | 3012 ft | 155 kts | 284° |
| 2026-04-22 18:56 | 50.13771 | 15.95852 | 3012 ft | 155 kts | 283° |
| 2026-04-22 18:56 | 50.13927 | 15.94181 | 3015 ft | 156 kts | 283° |
| 2026-04-22 18:56 | 50.14092 | 15.92511 | 2997 ft | 156 kts | 283° |
| 2026-04-22 18:57 | 50.14245 | 15.90835 | 3001 ft | 156 kts | 283° |
| 2026-04-22 18:57 | 50.14405 | 15.89165 | 3001 ft | 156 kts | 282° |
| 2026-04-22 18:57 | 50.14554 | 15.87486 | 3001 ft | 156 kts | 283° |
| 2026-04-22 18:57 | 50.14725 | 15.85821 | 3001 ft | 156 kts | 283° |
| 2026-04-22 18:58 | 50.14882 | 15.84140 | 2995 ft | 156 kts | 283° |
| 2026-04-22 18:58 | 50.15037 | 15.82465 | 2998 ft | 156 kts | 283° |
| 2026-04-22 18:58 | 50.15195 | 15.80753 | 2819 ft | 164 kts | 283° |
| 2026-04-22 18:58 | 50.15371 | 15.78945 | 2538 ft | 173 kts | 283° |
| 2026-04-22 18:59 | 50.15561 | 15.77103 | 2465 ft | 165 kts | 283° |
| 2026-04-22 18:59 | 50.15727 | 15.75355 | 2444 ft | 161 kts | 283° |
| 2026-04-22 18:59 | 50.15872 | 15.73677 | 2445 ft | 156 kts | 283° |
| 2026-04-22 18:59 | 50.16013 | 15.72011 | 2452 ft | 154 kts | 283° |
| 2026-04-22 19:00 | 50.16110 | 15.70893 | 2452 ft | 154 kts | 283° |
| 2026-04-22 19:00 | 50.16290 | 15.68709 | 2459 ft | 153 kts | 284° |
| 2026-04-22 19:00 | 50.16428 | 15.67058 | 2465 ft | 154 kts | 283° |
| 2026-04-22 19:00 | 50.16566 | 15.65393 | 2459 ft | 155 kts | 283° |
| 2026-04-22 19:01 | 50.16705 | 15.63733 | 2461 ft | 154 kts | 283° |
| 2026-04-22 19:01 | 50.16795 | 15.62607 | 2459 ft | 155 kts | 283° |
| 2026-04-22 19:01 | 50.16931 | 15.60953 | 2461 ft | 153 kts | 284° |
| 2026-04-22 19:01 | 50.17069 | 15.59301 | 2458 ft | 154 kts | 283° |
| 2026-04-22 19:02 | 50.17218 | 15.57647 | 2464 ft | 154 kts | 283° |
| 2026-04-22 19:02 | 50.17344 | 15.56013 | 2463 ft | 154 kts | 283° |
| 2026-04-22 19:02 | 50.17481 | 15.54353 | 2464 ft | 155 kts | 283° |
| 2026-04-22 19:02 | 50.17624 | 15.52688 | 2465 ft | 154 kts | 283° |
| 2026-04-22 19:03 | 50.17764 | 15.51032 | 2465 ft | 153 kts | 283° |
| 2026-04-22 19:03 | 50.17899 | 15.49390 | 2467 ft | 153 kts | 284° |
| 2026-04-22 19:03 | 50.18047 | 15.47750 | 2468 ft | 153 kts | 283° |
| 2026-04-22 19:03 | 50.18178 | 15.46094 | 2466 ft | 154 kts | 283° |
| 2026-04-22 19:04 | 50.18319 | 15.44436 | 2473 ft | 154 kts | 283° |
| 2026-04-22 19:04 | 50.18471 | 15.42781 | 2473 ft | 153 kts | 283° |
| 2026-04-22 19:04 | 50.18613 | 15.41126 | 2472 ft | 154 kts | 284° |
| 2026-04-22 19:04 | 50.18759 | 15.39477 | 2477 ft | 154 kts | 283° |
| 2026-04-22 19:05 | 50.18897 | 15.37812 | 2476 ft | 154 kts | 283° |
| 2026-04-22 19:05 | 50.19035 | 15.36153 | 2479 ft | 154 kts | 283° |
| 2026-04-22 19:05 | 50.19176 | 15.34495 | 2480 ft | 153 kts | 283° |
| 2026-04-22 19:05 | 50.19318 | 15.32850 | 2481 ft | 153 kts | 283° |
| 2026-04-22 19:06 | 50.19455 | 15.31206 | 2479 ft | 153 kts | 283° |
| 2026-04-22 19:06 | 50.19595 | 15.29553 | 2474 ft | 154 kts | 283° |
| 2026-04-22 19:06 | 50.19738 | 15.27894 | 2480 ft | 155 kts | 283° |
| 2026-04-22 19:07 | 50.20019 | 15.24578 | 2484 ft | 154 kts | 283° |
| 2026-04-22 19:07 | 50.20170 | 15.22914 | 2483 ft | 155 kts | 283° |
| 2026-04-22 19:07 | 50.20317 | 15.21249 | 2491 ft | 155 kts | 283° |
| 2026-04-22 19:07 | 50.20467 | 15.19584 | 2493 ft | 156 kts | 283° |
| 2026-04-22 19:08 | 50.20616 | 15.17909 | 2486 ft | 156 kts | 283° |
| 2026-04-22 19:08 | 50.20759 | 15.16277 | 2481 ft | 144 kts | 282° |
| 2026-04-22 19:08 | 50.20871 | 15.14788 | 2487 ft | 133 kts | 283° |
| 2026-04-22 19:08 | 50.20972 | 15.13398 | 2497 ft | 125 kts | 283° |
| 2026-04-22 19:09 | 50.21063 | 15.12073 | 2498 ft | 121 kts | 283° |
| 2026-04-22 19:09 | 50.21154 | 15.10774 | 2489 ft | 119 kts | 283° |
| 2026-04-22 19:09 | 50.21247 | 15.09500 | 2486 ft | 117 kts | 283° |
| 2026-04-22 19:09 | 50.21339 | 15.08245 | 2488 ft | 116 kts | 283° |
| 2026-04-22 19:10 | 50.21428 | 15.06992 | 2486 ft | 116 kts | 283° |
| 2026-04-22 19:10 | 50.21508 | 15.05737 | 2487 ft | 116 kts | 283° |
| 2026-04-22 19:10 | 50.21784 | 15.04592 | 2493 ft | 114 kts | 320° |
| 2026-04-22 19:10 | 50.22490 | 15.04202 | 2494 ft | 110 kts | 6° |
| 2026-04-22 19:11 | 50.23124 | 15.04825 | 2487 ft | 113 kts | 51° |
| 2026-04-22 19:11 | 50.23257 | 15.06045 | 2489 ft | 120 kts | 95° |
| 2026-04-22 19:11 | 50.22800 | 15.07149 | 2483 ft | 127 kts | 138° |
| 2026-04-22 19:11 | 50.21963 | 15.07581 | 2485 ft | 131 kts | 181° |
| 2026-04-22 19:12 | 50.21120 | 15.07113 | 2487 ft | 130 kts | 223° |
| 2026-04-22 19:12 | 50.20653 | 15.05962 | 2496 ft | 125 kts | 264° |
| 2026-04-22 19:12 | 50.20789 | 15.04696 | 2495 ft | 117 kts | 308° |
| 2026-04-22 19:12 | 50.21425 | 15.04029 | 2490 ft | 111 kts | 351° |
| 2026-04-22 19:13 | 50.22140 | 15.04344 | 2487 ft | 112 kts | 35° |
| 2026-04-22 19:13 | 50.22476 | 15.05435 | 2483 ft | 118 kts | 80° |
| 2026-04-22 19:13 | 50.22214 | 15.06665 | 2489 ft | 126 kts | 122° |
| 2026-04-22 19:13 | 50.21475 | 15.07394 | 2485 ft | 130 kts | 165° |
| 2026-04-22 19:14 | 50.20579 | 15.07250 | 2485 ft | 132 kts | 208° |
| 2026-04-22 19:14 | 50.19941 | 15.06278 | 2490 ft | 128 kts | 250° |
| 2026-04-22 19:14 | 50.19865 | 15.04972 | 2497 ft | 119 kts | 292° |
| 2026-04-22 19:14 | 50.20365 | 15.04030 | 2497 ft | 113 kts | 336° |
| 2026-04-22 19:15 | 50.20868 | 15.03892 | 2489 ft | 112 kts | 5° |
| 2026-04-22 19:15 | 50.21636 | 15.04882 | 2489 ft | 116 kts | 64° |
| 2026-04-22 19:15 | 50.21579 | 15.06143 | 2483 ft | 124 kts | 108° |
| 2026-04-22 19:15 | 50.20962 | 15.07093 | 2485 ft | 130 kts | 150° |
| 2026-04-22 19:16 | 50.20062 | 15.07257 | 2485 ft | 133 kts | 193° |
| 2026-04-22 19:16 | 50.19287 | 15.06536 | 2489 ft | 130 kts | 236° |
| 2026-04-22 19:16 | 50.18995 | 15.05273 | 2492 ft | 123 kts | 278° |
| 2026-04-22 19:16 | 50.19317 | 15.04143 | 2492 ft | 115 kts | 321° |
| 2026-04-22 19:17 | 50.20053 | 15.03768 | 2486 ft | 112 kts | 5° |
| 2026-04-22 19:17 | 50.20807 | 15.03690 | 2488 ft | 115 kts | 330° |
| 2026-04-22 19:17 | 50.21285 | 15.02643 | 2522 ft | 130 kts | 286° |
| 2026-04-22 19:17 | 50.21171 | 15.01167 | 2501 ft | 149 kts | 260° |
| 2026-04-22 19:18 | 50.20870 | 14.99568 | 2490 ft | 155 kts | 258° |
| 2026-04-22 19:18 | 50.20294 | 14.98122 | 2505 ft | 161 kts | 236° |
| 2026-04-22 19:18 | 50.19549 | 14.96798 | 2501 ft | 164 kts | 233° |
| 2026-04-22 19:18 | 50.18775 | 14.95468 | 2503 ft | 166 kts | 233° |
| 2026-04-22 19:19 | 50.17992 | 14.94135 | 2501 ft | 167 kts | 233° |
| 2026-04-22 19:19 | 50.17212 | 14.92799 | 2505 ft | 167 kts | 234° |
| 2026-04-22 19:19 | 50.16430 | 14.91442 | 2504 ft | 167 kts | 231° |
| 2026-04-22 19:19 | 50.15627 | 14.90115 | 2506 ft | 168 kts | 232° |
| 2026-04-22 19:20 | 50.14841 | 14.88769 | 2500 ft | 168 kts | 233° |
| 2026-04-22 19:20 | 50.14056 | 14.87421 | 2500 ft | 168 kts | 233° |
| 2026-04-22 19:20 | 50.13275 | 14.86074 | 2501 ft | 168 kts | 234° |
| 2026-04-22 19:20 | 50.12483 | 14.84730 | 2501 ft | 168 kts | 232° |
| 2026-04-22 19:21 | 50.11686 | 14.83395 | 2500 ft | 168 kts | 233° |
| 2026-04-22 19:21 | 50.10891 | 14.82058 | 2503 ft | 168 kts | 233° |
| 2026-04-22 19:21 | 50.10116 | 14.80748 | 2506 ft | 167 kts | 233° |
| 2026-04-22 19:21 | 50.09315 | 14.79395 | 2503 ft | 167 kts | 233° |
| 2026-04-22 19:22 | 50.08530 | 14.78091 | 2504 ft | 167 kts | 230° |
| 2026-04-22 19:22 | 50.07660 | 14.76877 | 2497 ft | 168 kts | 225° |
| 2026-04-22 19:22 | 50.06769 | 14.75674 | 2510 ft | 171 kts | 227° |
| 2026-04-22 19:22 | 50.05868 | 14.74433 | 2507 ft | 171 kts | 227° |
| 2026-04-22 19:23 | 50.04996 | 14.73211 | 2507 ft | 171 kts | 227° |
| 2026-04-22 19:23 | 50.04098 | 14.71999 | 2507 ft | 172 kts | 226° |
| 2026-04-22 19:23 | 50.03209 | 14.70756 | 2507 ft | 171 kts | 227° |
| 2026-04-22 19:23 | 50.02319 | 14.69532 | 2507 ft | 170 kts | 227° |
| 2026-04-22 19:24 | 50.01455 | 14.68282 | 2504 ft | 170 kts | 227° |
| 2026-04-22 19:24 | 50.00561 | 14.67067 | 2506 ft | 171 kts | 226° |
| 2026-04-22 19:24 | 49.99675 | 14.65845 | 2508 ft | 169 kts | 226° |
| 2026-04-22 19:24 | 49.98846 | 14.64553 | 2509 ft | 169 kts | 234° |
| 2026-04-22 19:25 | 49.98072 | 14.63189 | 2508 ft | 168 kts | 233° |
| 2026-04-22 19:25 | 49.97445 | 14.61670 | 2509 ft | 167 kts | 259° |
| 2026-04-22 19:25 | 49.97358 | 14.59926 | 2509 ft | 158 kts | 275° |
| 2026-04-22 19:25 | 49.97295 | 14.58231 | 2506 ft | 157 kts | 271° |
| 2026-04-22 19:26 | 49.97202 | 14.56541 | 2507 ft | 158 kts | 271° |
| 2026-04-22 19:26 | 49.97123 | 14.54840 | 2506 ft | 158 kts | 272° |
| 2026-04-22 19:26 | 49.97124 | 14.53167 | 2501 ft | 147 kts | 279° |
| 2026-04-22 19:26 | 49.97169 | 14.51663 | 2476 ft | 132 kts | 278° |
| 2026-04-22 19:27 | 49.97200 | 14.50299 | 2491 ft | 121 kts | 279° |
| 2026-04-22 19:27 | 49.97223 | 14.49028 | 2502 ft | 115 kts | 279° |
| 2026-04-22 19:27 | 49.97241 | 14.47829 | 2508 ft | 111 kts | 278° |
| 2026-04-22 19:27 | 49.97246 | 14.46619 | 2510 ft | 110 kts | 279° |
| 2026-04-22 19:28 | 49.97249 | 14.45443 | 2506 ft | 108 kts | 279° |
| 2026-04-22 19:28 | 49.97250 | 14.44289 | 2511 ft | 108 kts | 279° |
| 2026-04-22 19:28 | 49.97251 | 14.43123 | 2518 ft | 107 kts | 281° |
| 2026-04-22 19:28 | 49.97307 | 14.41982 | 2511 ft | 105 kts | 284° |
| 2026-04-22 19:29 | 49.97370 | 14.40849 | 2511 ft | 105 kts | 284° |
| 2026-04-22 19:29 | 49.97438 | 14.39708 | 2510 ft | 106 kts | 284° |
| 2026-04-22 19:29 | 49.97519 | 14.38577 | 2516 ft | 105 kts | 292° |
| 2026-04-22 19:29 | 49.97899 | 14.37637 | 2517 ft | 101 kts | 316° |
| 2026-04-22 19:30 | 49.98206 | 14.37104 | 2511 ft | 99 kts | 317° |
| 2026-04-22 19:30 | 49.98825 | 14.36073 | 2511 ft | 96 kts | 318° |
| 2026-04-22 19:30 | 49.99278 | 14.35325 | 2508 ft | 96 kts | 317° |
| 2026-04-22 19:30 | 49.99731 | 14.34585 | 2508 ft | 94 kts | 318° |
| 2026-04-22 19:31 | 50.00178 | 14.33847 | 2506 ft | 93 kts | 318° |
| 2026-04-22 19:31 | 50.00624 | 14.33111 | 2507 ft | 93 kts | 318° |
| 2026-04-22 19:31 | 50.01067 | 14.32374 | 2507 ft | 93 kts | 318° |
| 2026-04-22 19:31 | 50.01510 | 14.31634 | 2507 ft | 93 kts | 318° |
| 2026-04-22 19:32 | 50.02006 | 14.31003 | 2510 ft | 93 kts | 342° |
| 2026-04-22 19:32 | 50.02644 | 14.31014 | 2511 ft | 96 kts | 4° |
| 2026-04-22 19:32 | 50.03311 | 14.31143 | 2508 ft | 97 kts | 3° |
| 2026-04-22 19:32 | 50.03975 | 14.31278 | 2505 ft | 96 kts | 4° |
| 2026-04-22 19:33 | 50.04620 | 14.31427 | 2447 ft | 83 kts | 6° |
| 2026-04-22 19:33 | 50.05168 | 14.31587 | 2334 ft | 81 kts | 5° |
| 2026-04-22 19:33 | 50.05710 | 14.31715 | 2249 ft | 78 kts | 1° |
| 2026-04-22 19:33 | 50.06243 | 14.31768 | 2163 ft | 77 kts | 356° |
| 2026-04-22 19:34 | 50.06826 | 14.31719 | 2029 ft | 95 kts | 347° |
| 2026-04-22 19:34 | 50.07461 | 14.31227 | 1796 ft | 107 kts | 319° |
| 2026-04-22 19:34 | 50.07925 | 14.30449 | 1637 ft | 88 kts | 310° |
| 2026-04-22 19:34 | 50.08288 | 14.29733 | 1531 ft | 83 kts | 307° |
| 2026-04-22 19:35 | 50.08635 | 14.29001 | 1456 ft | 85 kts | 309° |
| 2026-04-22 19:35 | 50.08971 | 14.28303 | 1306 ft | 72 kts | 308° |
| 2026-04-22 19:35 | 50.09157 | 14.27934 | 1237 ft | 57 kts | 308° |
| 2026-04-22 19:35 | 50.09387 | 14.27476 | 1220 ft | 23 kts | 310° |
| 2026-04-22 19:36 | 50.09482 | 14.27498 | 1220 ft | 17 kts | 36° |
| 2026-04-22 19:36 | 50.09535 | 14.27559 | 1221 ft | 0 kts | 37° |
| 2026-04-22 19:38 | 50.09546 | 14.27572 | 1220 ft | 3 kts | 37° |
| 2026-04-22 19:38 | 50.09584 | 14.27618 | 1218 ft | 10 kts | 37° |
| 2026-04-22 19:38 | 50.09634 | 14.27676 | 1214 ft | 12 kts | 36° |
| 2026-04-22 19:38 | 50.09718 | 14.27768 | 1208 ft | 1 kts | 39° |
| 2026-04-22 19:39 | 50.09734 | 14.27787 | 1206 ft | 9 kts | 37° |
| 2026-04-22 19:39 | 50.09798 | 14.27839 | 1200 ft | 13 kts | 26° |
| 2026-04-22 19:39 | 50.09890 | 14.27936 | 1193 ft | 21 kts | 33° |
| 2026-04-22 19:39 | 50.09995 | 14.28083 | 1188 ft | 17 kts | 74° |
| 2026-04-22 19:40 | 50.09972 | 14.28209 | 1191 ft | 7 kts | 115° |
| 2026-04-22 19:40 | 50.09950 | 14.28270 | 1193 ft | 9 kts | 120° |
| 2026-04-22 19:40 | 50.09910 | 14.28382 | 1197 ft | 14 kts | 118° |
| 2026-04-22 19:40 | 50.09931 | 14.28494 | 1197 ft | 12 kts | 37° |
| 2026-04-22 19:41 | 50.09940 | 14.28563 | 1197 ft | 5 kts | 173° |
| 2026-04-22 19:41 | 50.09929 | 14.28561 | 1198 ft | 0 kts | 198° |